createdAt,value
2022-08-02T00:01:12.056Z,23.91
2022-08-02T00:03:41.931Z,24.07
2022-08-02T00:06:11.895Z,24.10
2022-08-02T00:08:41.964Z,24.01
2022-08-02T00:11:13.379Z,24.05
2022-08-02T00:13:43.898Z,24.05
2022-08-02T00:16:16.719Z,23.96
2022-08-02T00:18:47.900Z,24.00
2022-08-02T00:21:18.026Z,24.00
2022-08-02T00:24:29.383Z,23.93
2022-08-02T00:26:40.499Z,23.90
2022-08-02T00:29:10.381Z,23.83
2022-08-02T00:31:40.489Z,23.88
2022-08-02T00:34:29.927Z,23.87
2022-08-02T00:37:00.954Z,23.89
2022-08-02T00:39:34.052Z,23.76
2022-08-02T00:42:07.294Z,23.73
2022-08-02T00:44:37.309Z,23.68
2022-08-02T00:47:07.445Z,23.81
2022-08-02T00:49:37.588Z,23.74
2022-08-02T00:52:08.283Z,23.74
2022-08-02T00:54:38.493Z,23.66
2022-08-02T00:57:09.964Z,23.57
2022-08-02T00:59:39.910Z,23.59
2022-08-02T01:02:10.347Z,23.56
2022-08-02T01:04:40.508Z,23.59
2022-08-02T01:07:13.126Z,23.54
2022-08-02T01:09:44.086Z,23.58
2022-08-02T01:12:16.550Z,23.50
2022-08-02T01:14:49.208Z,23.40
2022-08-02T01:17:24.784Z,23.45
2022-08-02T01:20:06.612Z,23.53
2022-08-02T01:23:03.663Z,23.43
2022-08-02T01:26:04.205Z,23.39
2022-08-02T01:28:40.011Z,23.35
2022-08-02T01:31:17.579Z,23.46
2022-08-02T01:33:52.997Z,23.46
2022-08-02T01:36:25.014Z,23.45
2022-08-02T01:38:57.030Z,23.41
2022-08-02T01:41:29.686Z,23.34
2022-08-02T01:44:03.109Z,23.22
2022-08-02T01:46:35.066Z,23.21
2022-08-02T01:49:09.542Z,23.16
2022-08-02T01:51:58.590Z,23.21
2022-08-02T01:54:32.419Z,23.04
2022-08-02T01:57:03.778Z,23.02
2022-08-02T01:59:36.345Z,22.98
2022-08-02T02:02:10.340Z,23.00
2022-08-02T02:04:42.115Z,22.98
2022-08-02T02:07:15.798Z,23.07
2022-08-02T02:09:50.473Z,23.03
2022-08-02T02:12:24.419Z,23.02
2022-08-02T02:14:57.266Z,23.01
2022-08-02T02:17:52.826Z,22.85
2022-08-02T02:20:21.364Z,22.67
2022-08-02T02:22:52.017Z,22.53
2022-08-02T02:25:32.941Z,22.65
2022-08-02T02:28:11.226Z,22.63
2022-08-02T02:30:49.972Z,22.57
2022-08-02T02:33:24.159Z,22.55
2022-08-02T02:35:59.327Z,22.58
2022-08-02T02:38:32.848Z,22.48
2022-08-02T02:41:04.249Z,22.38
2022-08-02T02:43:36.497Z,22.53
2022-08-02T02:46:09.767Z,22.38
2022-08-02T02:48:40.836Z,22.39
2022-08-02T02:51:13.950Z,22.35
2022-08-02T02:54:30.588Z,22.29
2022-08-02T02:56:38.137Z,22.31
2022-08-02T02:59:09.253Z,22.36
2022-08-02T03:01:57.419Z,22.16
2022-08-02T03:04:55.218Z,22.04
2022-08-02T03:07:19.562Z,22.07
2022-08-02T03:09:54.234Z,22.14
2022-08-02T03:12:31.503Z,21.99
2022-08-02T03:15:05.546Z,22.07
2022-08-02T03:17:44.923Z,22.12
2022-08-02T03:20:17.192Z,22.22
2022-08-02T03:22:48.968Z,22.15
2022-08-02T03:25:19.822Z,22.12
2022-08-02T03:27:49.749Z,22.09
2022-08-02T03:30:19.775Z,22.09
2022-08-02T03:32:51.652Z,22.11
2022-08-02T03:35:24.485Z,22.08
2022-08-02T03:37:56.864Z,22.05
2022-08-02T03:40:27.229Z,21.84
2022-08-02T03:42:57.831Z,21.76
2022-08-02T03:45:28.179Z,21.60
2022-08-02T03:47:59.877Z,21.58
2022-08-02T03:50:30.068Z,21.61
2022-08-02T03:53:00.563Z,21.71
2022-08-02T03:55:30.520Z,21.76
2022-08-02T03:58:00.694Z,21.69
2022-08-02T04:00:30.763Z,21.71
2022-08-02T04:03:03.468Z,21.86
2022-08-02T04:05:33.440Z,21.83
2022-08-02T04:08:35.165Z,21.87
2022-08-02T04:11:11.145Z,21.90
2022-08-02T04:13:42.100Z,21.94
2022-08-02T04:16:17.288Z,21.98
2022-08-02T04:18:55.156Z,22.06
2022-08-02T04:21:48.517Z,22.03
2022-08-02T04:24:24.513Z,21.99
2022-08-02T04:26:57.845Z,21.96
2022-08-02T04:29:34.284Z,21.94
2022-08-02T04:32:06.057Z,22.01
2022-08-02T04:34:37.432Z,22.05
2022-08-02T04:37:08.268Z,22.05
2022-08-02T04:39:38.276Z,21.88
2022-08-02T04:42:09.058Z,21.96
2022-08-02T04:44:39.219Z,21.92
2022-08-02T04:47:09.764Z,22.01
2022-08-02T04:49:41.115Z,22.08
2022-08-02T04:52:11.462Z,22.14
2022-08-02T04:54:41.597Z,22.25
2022-08-02T04:57:26.149Z,22.34
2022-08-02T04:59:57.383Z,22.46
2022-08-02T05:02:27.479Z,22.67
2022-08-02T05:04:58.845Z,22.82
2022-08-02T05:07:29.389Z,22.93
2022-08-02T05:10:06.952Z,23.07
2022-08-02T05:12:38.958Z,23.01
2022-08-02T05:15:12.728Z,23.05
2022-08-02T05:17:47.404Z,23.21
2022-08-02T05:20:20.206Z,23.29
2022-08-02T05:22:50.128Z,23.35
2022-08-02T05:25:20.084Z,23.49
2022-08-02T05:27:50.004Z,23.58
2022-08-02T05:30:20.091Z,23.64
2022-08-02T05:32:52.651Z,23.82
2022-08-02T05:35:25.859Z,23.83
2022-08-02T05:37:55.719Z,23.99
2022-08-02T05:40:26.294Z,23.99
2022-08-02T05:42:56.515Z,24.11
2022-08-02T05:45:27.025Z,24.15
2022-08-02T05:47:57.412Z,24.30
2022-08-02T05:50:28.763Z,24.39
2022-08-02T05:53:05.236Z,24.38
2022-08-02T05:55:36.937Z,24.47
2022-08-02T05:58:14.424Z,24.56
2022-08-02T06:00:46.453Z,24.67
2022-08-02T06:03:23.560Z,24.82
2022-08-02T06:06:01.311Z,24.97
2022-08-02T06:08:34.615Z,25.02
2022-08-02T06:11:07.581Z,25.00
2022-08-02T06:13:38.808Z,25.07
2022-08-02T06:16:14.180Z,25.20
2022-08-02T06:18:45.590Z,25.31
2022-08-02T06:22:31.917Z,25.33
2022-08-02T06:24:09.746Z,25.32
2022-08-02T06:26:40.048Z,25.34
2022-08-02T06:29:10.523Z,25.50
2022-08-02T06:31:42.514Z,25.64
2022-08-02T06:34:15.223Z,25.62
2022-08-02T06:36:57.266Z,25.68
2022-08-02T06:39:34.139Z,25.78
2022-08-02T06:42:09.875Z,25.79
2022-08-02T06:44:50.036Z,25.72
2022-08-02T06:47:22.929Z,25.86
2022-08-02T06:49:54.183Z,25.83
2022-08-02T06:52:30.001Z,25.93
2022-08-02T06:55:01.655Z,25.79
2022-08-02T06:57:32.125Z,25.88
2022-08-02T07:00:05.043Z,25.93
2022-08-02T07:02:36.478Z,26.00
2022-08-02T07:05:07.424Z,26.02
2022-08-02T07:07:38.830Z,26.13
2022-08-02T07:10:09.840Z,26.06
2022-08-02T07:12:40.164Z,26.10
2022-08-02T07:15:12.605Z,26.15
2022-08-02T07:17:42.518Z,26.11
2022-08-02T07:20:13.586Z,26.17
2022-08-02T07:22:44.987Z,26.30
2022-08-02T07:25:14.996Z,26.45
2022-08-02T07:27:45.272Z,26.43
2022-08-02T07:30:15.299Z,26.53
2022-08-02T07:32:45.494Z,26.55
2022-08-02T07:35:16.377Z,26.52
2022-08-02T07:37:54.859Z,26.61
2022-08-02T07:40:27.363Z,26.64
2022-08-02T07:43:03.334Z,26.71
2022-08-02T07:45:36.074Z,26.71
2022-08-02T07:48:15.826Z,26.77
2022-08-02T07:50:46.792Z,26.81
2022-08-02T07:53:18.315Z,26.80
2022-08-02T07:55:48.247Z,26.86
2022-08-02T07:58:18.290Z,26.95
2022-08-02T08:00:48.318Z,27.01
2022-08-02T08:03:18.178Z,27.10
2022-08-02T08:05:49.380Z,27.16
2022-08-02T08:08:21.099Z,27.22
2022-08-02T08:10:51.156Z,27.20
2022-08-02T08:13:21.328Z,27.30
2022-08-02T08:15:52.725Z,27.32
2022-08-02T08:18:23.539Z,27.43
2022-08-02T08:20:53.538Z,27.47
2022-08-02T08:23:25.987Z,27.50
2022-08-02T08:25:55.857Z,27.46
2022-08-02T08:28:25.793Z,27.46
2022-08-02T08:30:55.808Z,27.60
2022-08-02T08:33:25.912Z,27.54
2022-08-02T08:35:56.448Z,27.57
2022-08-02T08:38:28.662Z,27.73
2022-08-02T08:40:58.952Z,27.80
2022-08-02T08:43:28.786Z,27.72
2022-08-02T08:45:58.757Z,27.70
2022-08-02T08:48:31.756Z,27.69
2022-08-02T08:51:08.317Z,27.85
2022-08-02T08:53:44.262Z,28.01
2022-08-02T08:56:16.756Z,27.98
2022-08-02T08:58:48.561Z,27.88
2022-08-02T09:01:18.689Z,27.93
2022-08-02T09:03:48.685Z,27.87
2022-08-02T09:06:18.939Z,27.91
2022-08-02T09:08:50.426Z,27.72
2022-08-02T09:11:24.469Z,27.63
2022-08-02T09:13:56.689Z,27.44
2022-08-02T09:16:35.615Z,27.47
2022-08-02T09:19:19.493Z,27.72
2022-08-02T09:21:50.836Z,27.69
2022-08-02T09:24:23.711Z,26.95
2022-08-02T09:26:53.761Z,27.69
2022-08-02T09:29:26.184Z,27.84
2022-08-02T09:32:04.815Z,28.06
2022-08-02T09:34:53.352Z,28.27
2022-08-02T09:37:25.302Z,28.53
2022-08-02T09:39:59.861Z,28.62
2022-08-02T09:42:30.723Z,28.54
2022-08-02T09:45:03.528Z,28.39
2022-08-02T09:47:37.270Z,28.24
2022-08-02T09:50:13.318Z,28.27
2022-08-02T09:52:45.069Z,28.47
2022-08-02T09:55:16.619Z,28.52
2022-08-02T09:57:50.983Z,28.39
2022-08-02T10:00:37.233Z,28.51
2022-08-02T10:03:21.617Z,28.63
2022-08-02T10:05:56.191Z,28.56
2022-08-02T10:08:34.007Z,28.41
2022-08-02T10:11:05.746Z,28.45
2022-08-02T10:13:37.432Z,28.65
2022-08-02T10:16:07.806Z,28.78
2022-08-02T10:18:39.804Z,28.92
2022-08-02T10:21:15.731Z,28.96
2022-08-02T10:23:47.445Z,28.91
2022-08-02T10:26:22.133Z,29.01
2022-08-02T10:28:55.173Z,29.18
2022-08-02T10:31:28.897Z,29.22
2022-08-02T10:34:01.200Z,29.23
2022-08-02T10:36:33.643Z,29.23
2022-08-02T10:39:04.038Z,29.21
2022-08-02T10:41:50.223Z,29.16
2022-08-02T10:44:25.960Z,29.16
2022-08-02T10:47:24.464Z,29.08
2022-08-02T10:49:56.234Z,29.13
2022-08-02T10:52:26.904Z,29.05
2022-08-02T10:54:58.439Z,28.88
2022-08-02T10:57:31.995Z,28.90
2022-08-02T11:00:05.258Z,28.77
2022-08-02T11:02:41.119Z,28.81
2022-08-02T11:05:13.367Z,28.94
2022-08-02T11:07:47.427Z,28.88
2022-08-02T11:10:38.657Z,29.16
2022-08-02T11:13:13.995Z,29.15
2022-08-02T11:15:58.929Z,29.14
2022-08-02T11:19:03.673Z,29.16
2022-08-02T11:21:37.664Z,29.01
2022-08-02T11:24:28.766Z,29.11
2022-08-02T11:27:01.576Z,29.15
2022-08-02T11:29:40.861Z,29.09
2022-08-02T11:32:18.353Z,28.99
2022-08-02T11:34:50.721Z,28.91
2022-08-02T11:37:30.155Z,28.79
2022-08-02T11:40:00.144Z,28.77
2022-08-02T11:42:34.062Z,28.69
2022-08-02T11:45:08.381Z,28.84
2022-08-02T11:47:47.278Z,29.06
2022-08-02T11:50:18.411Z,29.20
2022-08-02T11:52:48.757Z,29.38
2022-08-02T11:55:18.745Z,29.33
2022-08-02T11:58:04.808Z,29.34
2022-08-02T12:00:37.158Z,29.48
2022-08-02T12:03:08.760Z,29.37
2022-08-02T12:06:04.931Z,29.46
2022-08-02T12:08:30.069Z,29.42
2022-08-02T12:11:03.934Z,29.45
2022-08-02T12:13:45.013Z,29.21
2022-08-02T12:16:52.621Z,29.27
2022-08-02T12:19:26.537Z,29.16
2022-08-02T12:22:12.581Z,29.23
2022-08-02T12:24:44.412Z,29.18
2022-08-02T12:27:30.368Z,29.18
2022-08-02T12:30:02.778Z,29.19
2022-08-02T12:32:34.271Z,29.06
2022-08-02T12:35:12.348Z,29.14
2022-08-02T12:37:45.629Z,29.16
2022-08-02T12:40:27.245Z,29.25
2022-08-02T12:42:59.098Z,29.35
2022-08-02T12:45:38.380Z,29.45
2022-08-02T12:48:14.041Z,29.35
2022-08-02T12:50:44.390Z,29.37
2022-08-02T12:53:16.702Z,29.35
2022-08-02T12:56:00.039Z,29.51
2022-08-02T12:58:47.290Z,29.48
2022-08-02T13:01:22.709Z,29.55
2022-08-02T13:04:12.214Z,29.67
2022-08-02T13:06:45.153Z,29.79
2022-08-02T13:09:17.976Z,29.65
2022-08-02T13:11:48.364Z,29.72
2022-08-02T13:14:18.610Z,29.64
2022-08-02T13:16:49.324Z,29.54
2022-08-02T13:19:20.808Z,29.59
2022-08-02T13:22:02.277Z,29.51
2022-08-02T13:24:40.150Z,29.51
2022-08-02T13:27:24.178Z,29.72
2022-08-02T13:29:55.055Z,29.66
2022-08-02T13:32:26.494Z,29.59
2022-08-02T13:34:58.340Z,29.56
2022-08-02T13:37:28.530Z,29.59
2022-08-02T13:40:20.455Z,29.69
2022-08-02T13:42:50.038Z,29.69
2022-08-02T13:45:19.977Z,29.55
2022-08-02T13:48:04.775Z,29.64
2022-08-02T13:50:36.822Z,29.58
2022-08-02T13:53:06.985Z,29.47
2022-08-02T13:55:37.356Z,29.55
2022-08-02T13:58:13.481Z,29.43
2022-08-02T14:00:43.372Z,29.56
2022-08-02T14:03:13.332Z,29.45
2022-08-02T14:05:48.431Z,29.47
2022-08-02T14:08:20.380Z,29.41
2022-08-02T14:10:51.799Z,29.40
2022-08-02T14:13:22.041Z,29.37
2022-08-02T14:15:52.733Z,29.39
2022-08-02T14:18:22.619Z,29.43
2022-08-02T14:20:53.877Z,29.33
2022-08-02T14:23:49.639Z,29.32
2022-08-02T14:26:26.861Z,29.29
2022-08-02T14:28:58.004Z,29.25
2022-08-02T14:31:28.947Z,29.30
2022-08-02T14:33:58.890Z,29.41
2022-08-02T14:36:30.343Z,29.32
2022-08-02T14:39:01.596Z,29.31
2022-08-02T14:41:34.024Z,29.21
2022-08-02T14:44:23.756Z,29.16
2022-08-02T14:46:54.702Z,29.11
2022-08-02T14:49:26.778Z,29.09
2022-08-02T14:51:58.631Z,28.89
2022-08-02T14:54:31.570Z,29.03
2022-08-02T14:57:04.787Z,29.00
2022-08-02T14:59:34.987Z,29.03
2022-08-02T15:02:05.520Z,29.05
2022-08-02T15:04:42.874Z,29.04
2022-08-02T15:07:15.745Z,29.02
2022-08-02T15:09:45.669Z,29.07
2022-08-02T15:12:16.889Z,29.05
2022-08-02T15:14:47.453Z,29.00
2022-08-02T15:17:17.404Z,28.93
2022-08-02T15:19:57.776Z,28.90
2022-08-02T15:22:32.384Z,28.98
2022-08-02T15:25:03.020Z,28.92
2022-08-02T15:27:34.378Z,28.89
2022-08-02T15:30:10.046Z,28.90
2022-08-02T15:32:40.552Z,29.01
2022-08-02T15:35:25.342Z,28.99
2022-08-02T15:37:56.808Z,28.98
2022-08-02T15:40:27.023Z,28.91
2022-08-02T15:42:56.917Z,28.88
2022-08-02T15:45:27.886Z,28.82
2022-08-02T15:47:58.011Z,28.79
2022-08-02T15:50:28.473Z,28.72
2022-08-02T15:52:59.883Z,28.64
2022-08-02T15:55:30.242Z,28.64
2022-08-02T15:58:22.562Z,28.89
2022-08-02T16:00:53.006Z,28.59
2022-08-02T16:03:23.403Z,28.85
2022-08-02T16:05:53.616Z,28.79
2022-08-02T16:08:24.956Z,28.69
2022-08-02T16:10:54.827Z,28.80
2022-08-02T16:13:53.107Z,28.79
2022-08-02T16:16:25.619Z,28.93
2022-08-02T16:18:55.847Z,28.89
2022-08-02T16:21:26.053Z,28.80
2022-08-02T16:24:02.259Z,28.65
2022-08-02T16:26:34.370Z,28.85
2022-08-02T16:29:06.075Z,28.64
2022-08-02T16:31:41.579Z,28.84
2022-08-02T16:34:12.862Z,28.83
2022-08-02T16:36:42.954Z,28.73
2022-08-02T16:39:14.506Z,28.75
2022-08-02T16:41:51.949Z,28.79
2022-08-02T16:44:29.237Z,28.74
2022-08-02T16:47:01.496Z,28.75
2022-08-02T16:50:04.901Z,28.74
2022-08-02T16:52:21.863Z,28.68
2022-08-02T16:54:53.141Z,28.70
2022-08-02T16:57:23.240Z,28.69
2022-08-02T17:00:08.605Z,28.64
2022-08-02T17:02:40.889Z,28.68
2022-08-02T17:05:14.311Z,28.66
2022-08-02T17:08:15.268Z,28.68
2022-08-02T17:10:37.555Z,28.59
2022-08-02T17:13:10.772Z,28.55
2022-08-02T17:16:16.092Z,28.53
2022-08-02T17:18:34.766Z,28.49
2022-08-02T17:21:14.086Z,28.43
2022-08-02T17:24:08.388Z,28.33
2022-08-02T17:26:40.080Z,28.21
2022-08-02T17:29:15.945Z,28.13
2022-08-02T17:32:04.742Z,28.09
2022-08-02T17:34:36.752Z,28.02
2022-08-02T17:37:06.923Z,27.92
2022-08-02T17:42:30.005Z,27.89
2022-08-02T17:48:04.788Z,27.80
2022-08-02T17:50:35.757Z,27.74
2022-08-02T17:53:06.222Z,27.71
2022-08-02T17:55:42.275Z,27.66
2022-08-02T17:58:13.853Z,27.58
2022-08-02T18:00:44.901Z,27.58
2022-08-02T18:03:15.288Z,27.54
2022-08-02T18:05:53.429Z,27.51
2022-08-02T18:08:25.485Z,27.46
2022-08-02T18:10:55.961Z,27.43
2022-08-02T18:16:21.263Z,27.35
2022-08-02T18:18:52.763Z,27.28
2022-08-02T18:21:22.953Z,27.26
2022-08-02T18:26:43.725Z,27.22
2022-08-02T18:29:15.419Z,27.20
2022-08-02T18:31:51.165Z,27.17
2022-08-02T18:34:24.155Z,27.22
2022-08-02T18:36:54.300Z,27.13
2022-08-02T18:39:25.752Z,27.12
2022-08-02T18:42:02.943Z,27.14
2022-08-02T18:44:34.253Z,27.13
2022-08-02T18:47:04.999Z,27.08
2022-08-02T18:49:46.530Z,27.06
2022-08-02T18:52:31.419Z,26.99
2022-08-02T18:55:01.529Z,26.98
2022-08-02T19:00:25.899Z,26.89
2022-08-02T19:02:56.702Z,26.84
2022-08-02T19:05:53.740Z,26.81
2022-08-02T19:08:18.102Z,26.76
2022-08-02T19:10:49.441Z,26.77
2022-08-02T19:13:20.466Z,26.72
2022-08-02T19:15:53.643Z,26.64
2022-08-02T19:18:26.999Z,26.67
2022-08-02T19:21:05.768Z,26.61
2022-08-02T19:23:37.443Z,26.58
2022-08-02T19:26:24.566Z,26.56
2022-08-02T19:28:55.813Z,26.58
2022-08-02T19:31:34.752Z,26.56
2022-08-02T19:34:20.475Z,26.54
2022-08-02T19:36:55.053Z,26.49
2022-08-02T19:39:25.028Z,26.41
2022-08-02T19:41:57.169Z,26.36
2022-08-02T19:44:29.511Z,26.38
2022-08-02T19:47:01.084Z,26.38
2022-08-02T19:49:40.320Z,26.37
2022-08-02T19:52:21.226Z,26.32
2022-08-02T19:54:55.433Z,26.32
2022-08-02T19:57:26.559Z,26.32
2022-08-02T19:59:58.582Z,26.28
2022-08-02T20:02:30.298Z,26.25
2022-08-02T20:05:08.025Z,26.13
2022-08-02T20:07:54.491Z,26.05
2022-08-02T20:10:25.384Z,25.89
2022-08-02T20:12:56.950Z,25.90
2022-08-02T20:15:56.477Z,25.83
2022-08-02T20:21:18.847Z,25.61
2022-08-02T20:23:59.755Z,25.59
2022-08-02T20:26:30.524Z,25.57
2022-08-02T20:29:02.562Z,25.52
2022-08-02T20:31:33.090Z,25.62
2022-08-02T20:34:04.504Z,25.64
2022-08-02T20:36:38.246Z,25.44
2022-08-02T20:39:08.422Z,25.59
2022-08-02T20:41:46.397Z,25.53
2022-08-02T20:44:31.079Z,25.50
2022-08-02T20:47:02.125Z,25.44
2022-08-02T20:49:40.931Z,25.58
2022-08-02T20:52:24.200Z,25.52
2022-08-02T20:54:54.762Z,25.35
2022-08-02T20:57:49.135Z,25.42
2022-08-02T21:00:16.720Z,25.33
2022-08-02T21:02:46.957Z,25.36
2022-08-02T21:05:18.915Z,25.43
2022-08-02T21:07:53.472Z,25.46
2022-08-02T21:10:24.811Z,25.35
2022-08-02T21:12:55.677Z,25.38
2022-08-02T21:15:26.808Z,25.48
2022-08-02T21:18:01.294Z,25.36
2022-08-02T21:20:35.973Z,25.42
2022-08-02T21:23:06.029Z,25.36
2022-08-02T21:25:57.143Z,25.31
2022-08-02T21:28:43.763Z,25.32
2022-08-02T21:31:16.059Z,25.13
2022-08-02T21:33:58.651Z,25.00
2022-08-02T21:36:33.244Z,25.03
2022-08-02T21:39:09.113Z,25.03
2022-08-02T21:41:47.077Z,25.00
2022-08-02T21:44:18.463Z,25.01
2022-08-02T21:46:49.992Z,24.97
2022-08-02T21:49:21.065Z,24.94
2022-08-02T21:52:12.204Z,24.93
2022-08-02T21:54:45.482Z,24.77
2022-08-02T21:57:16.687Z,24.87
2022-08-02T21:59:48.294Z,24.92
2022-08-02T22:02:30.462Z,24.86
2022-08-02T22:05:01.938Z,24.74
2022-08-02T22:07:38.623Z,24.69
2022-08-02T22:10:10.239Z,24.64
2022-08-02T22:12:40.657Z,24.54
2022-08-02T22:15:11.984Z,24.46
2022-08-02T22:17:53.403Z,24.32
2022-08-02T22:20:29.772Z,24.41
2022-08-02T22:23:01.277Z,24.34
2022-08-02T22:25:37.360Z,24.25
2022-08-02T22:28:37.983Z,24.15
2022-08-02T22:31:00.162Z,24.12
2022-08-02T22:34:00.946Z,24.06
2022-08-02T22:36:32.930Z,23.81
2022-08-02T22:39:19.163Z,23.88
2022-08-02T22:42:05.365Z,23.78
2022-08-02T22:44:39.363Z,23.74
2022-08-02T22:47:15.238Z,23.62
2022-08-02T22:49:53.248Z,23.71
2022-08-02T22:52:25.968Z,23.56
2022-08-02T22:54:57.321Z,23.68
2022-08-02T22:58:40.203Z,27.83
2022-08-02T22:58:44.031Z,27.24
2022-08-02T22:58:46.369Z,26.95
2022-08-02T22:58:49.821Z,27.93
2022-08-02T22:58:55.200Z,25.76
2022-08-02T22:58:59.954Z,27.39
2022-08-02T23:00:17.976Z,23.59
2022-08-02T23:02:48.132Z,23.59
2022-08-02T23:05:18.200Z,23.48
2022-08-02T23:07:48.327Z,23.42
2022-08-02T23:10:19.743Z,23.49
2022-08-02T23:12:50.021Z,23.45
2022-08-02T23:15:20.182Z,23.53
2022-08-02T23:18:07.159Z,23.40
2022-08-02T23:20:37.480Z,23.36
2022-08-02T23:23:11.848Z,23.34
2022-08-02T23:25:43.297Z,23.23
2022-08-02T23:28:13.103Z,23.25
2022-08-02T23:30:42.984Z,23.27
2022-08-02T23:33:14.718Z,23.27
2022-08-02T23:35:45.160Z,23.26
2022-08-02T23:38:15.266Z,23.23
2022-08-02T23:40:46.620Z,23.23
2022-08-02T23:43:19.093Z,23.25
2022-08-02T23:45:49.054Z,23.11
2022-08-02T23:48:19.034Z,23.06
2022-08-02T23:50:49.097Z,23.04
2022-08-02T23:53:18.959Z,23.04
2022-08-02T23:55:50.216Z,23.11
2022-08-02T23:58:20.095Z,23.10
